Fox Island, Washington
Current Conditions -  °F | °C
As of 1:53 PM on Sunday 23 Nov 2014 (Local Time) from KTIW Reporting Station
Clear Clear  
Wind Chill: 53°   Ceiling: Unl
Heat Index: 53°   Visibility: 10mi
Dew Point: 42°   Wind: 9mph
Humidity: 66%   Direction: 220°SW
Pressure: 30.15"   Gusts: NA
Location:  47.25°N, 122.63°W
Report Text: KTIW 232153Z 22008KT 180V250 10SM CLR 12/06 A3015 RMK AO2 SLP211 T01170056
Loading
Personal Weather Stations






























Interactive Weather Map New forecast layout! Learn more

10-Day Weather Forecast

Advertisements
Track Severe Weather on mobile